Terminal Aerodrome Forecast
Issued by NWS

Home | Current Version | Previous Version | Text Only | Print | Product List | Glossary On
Versions: 1 2 3 4 5 6 7 8 9 10 11 12 13 14
000
FTUS43 KMQT 031938 AAA
TAFIWD
TAF AMD
KIWD 031938Z 0320/0418 36007KT P6SM -SHRA OVC060
     FM032300 36007KT P6SM -SHRA BKN030
     FM040000 02006KT P6SM BKN035
     FM040500 36005KT P6SM BKN050
     FM041200 01007KT P6SM BKN030
     FM041700 01012G18KT P6SM SCT030
      AMD LTD TO VIS AND WIND=

USA.gov is the U.S. government's official web portal to all federal, state and local government web resources and services.